Time;durP1;ratioP1;P1;durP2;ratioP2;P2;SDS_P1;SDS_P2;PMS_P1;PMS_P2;Temp;Humidity;BMP_temperature;BMP_pressure;BME280_temperature;BME280_humidity;BME280_pressure;Samples;Min_cycle;Max_cycle;Signal;HPM_P1;HPM_P2
2023/10/28 00:01:30;;;;;;;0.87;0.83;;;;;;;;;;5029501;28;20234;-75
2023/10/28 00:03:58;;;;;;;0.90;0.90;;;;;;;;;;5043669;28;20206;-77
2023/10/28 00:06:26;;;;;;;0.80;0.80;;;;;;;;;;5036462;28;20294;-76
2023/10/28 00:08:53;;;;;;;1.00;1.00;;;;;;;;;;5034114;28;20338;-76
2023/10/28 00:11:20;;;;;;;0.70;0.70;;;;;;;;;;5029869;28;20634;-76
2023/10/28 00:13:48;;;;;;;1.10;1.00;;;;;;;;;;5037145;28;20206;-76
2023/10/28 00:16:15;;;;;;;0.80;0.80;;;;;;;;;;5032762;28;20213;-76
2023/10/28 00:18:42;;;;;;;0.80;0.80;;;;;;;;;;5015312;28;20276;-76
2023/10/28 00:21:11;;;;;;;0.80;0.80;;;;;;;;;;5032651;28;20276;-77
2023/10/28 00:23:39;;;;;;;0.80;0.77;;;;;;;;;;5035994;28;20293;-76
2023/10/28 00:26:07;;;;;;;0.80;0.80;;;;;;;;;;5053344;28;20298;-76
2023/10/28 00:28:34;;;;;;;0.90;0.90;;;;;;;;;;5053763;28;20635;-77
2023/10/28 00:31:02;;;;;;;0.80;0.80;;;;;;;;;;5053822;28;20225;-76
2023/10/28 00:33:30;;;;;;;1.63;0.80;;;;;;;;;;5037321;28;20207;-76
2023/10/28 00:35:57;;;;;;;1.53;0.80;;;;;;;;;;5053309;28;20654;-75
2023/10/28 00:38:25;;;;;;;2.20;0.87;;;;;;;;;;5041832;28;20286;-75
2023/10/28 00:40:52;;;;;;;0.93;0.80;;;;;;;;;;5032334;28;20227;-77
2023/10/28 00:43:23;;;;;;;1.07;0.90;;;;;;;;;;5032578;28;20206;-76
2023/10/28 00:45:51;;;;;;;0.87;0.87;;;;;;;;;;5032642;28;20586;-76
2023/10/28 00:48:19;;;;;;;2.73;1.10;;;;;;;;;;5032058;28;20230;-75
2023/10/28 00:50:46;;;;;;;1.37;1.17;;;;;;;;;;5031497;28;20227;-75
2023/10/28 00:53:14;;;;;;;0.80;0.80;;;;;;;;;;5046235;28;20191;-76
2023/10/28 00:55:41;;;;;;;1.67;1.00;;;;;;;;;;5025441;28;20202;-76
2023/10/28 00:58:09;;;;;;;3.00;1.20;;;;;;;;;;5035809;28;20210;-76
2023/10/28 01:00:36;;;;;;;2.10;1.10;;;;;;;;;;5034788;28;20241;-76
2023/10/28 01:03:04;;;;;;;1.47;1.37;;;;;;;;;;5039782;28;20214;-75
2023/10/28 01:05:33;;;;;;;1.33;1.00;;;;;;;;;;5047500;28;20210;-77
2023/10/28 01:08:00;;;;;;;0.90;0.90;;;;;;;;;;5044496;28;20239;-77
2023/10/28 01:10:29;;;;;;;0.97;0.97;;;;;;;;;;5025746;28;20240;-75
2023/10/28 01:12:56;;;;;;;1.83;1.10;;;;;;;;;;5023925;28;20206;-75
2023/10/28 01:15:24;;;;;;;2.07;1.30;;;;;;;;;;5020006;28;20662;-76
2023/10/28 01:17:52;;;;;;;3.77;1.20;;;;;;;;;;5022305;28;20219;-76
2023/10/28 01:20:19;;;;;;;2.43;1.00;;;;;;;;;;5005803;28;20712;-77
2023/10/28 01:22:46;;;;;;;2.67;1.10;;;;;;;;;;5020546;28;20280;-76
2023/10/28 01:25:14;;;;;;;1.43;1.00;;;;;;;;;;5021863;28;20215;-76
2023/10/28 01:27:43;;;;;;;2.67;1.20;;;;;;;;;;5026206;28;20750;-76
2023/10/28 01:30:14;;;;;;;1.03;1.03;;;;;;;;;;5024147;28;20558;-78
2023/10/28 01:32:46;;;;;;;1.20;1.00;;;;;;;;;;5023966;28;20233;-78
2023/10/28 01:35:13;;;;;;;2.63;1.30;;;;;;;;;;5007043;28;20682;-77
2023/10/28 01:37:41;;;;;;;2.80;1.23;;;;;;;;;;5023857;28;20652;-76
2023/10/28 01:40:17;;;;;;;1.20;1.20;;;;;;;;;;5045236;28;20203;-76
2023/10/28 01:42:45;;;;;;;1.60;0.97;;;;;;;;;;5051984;28;20271;-77
2023/10/28 01:45:15;;;;;;;1.37;1.17;;;;;;;;;;5054429;28;20229;-75
2023/10/28 01:47:43;;;;;;;1.80;1.30;;;;;;;;;;5053267;28;20749;-76
2023/10/28 01:50:11;;;;;;;1.97;1.30;;;;;;;;;;5034669;28;20226;-77
2023/10/28 01:52:40;;;;;;;1.40;1.27;;;;;;;;;;5052069;28;20209;-76
2023/10/28 01:55:08;;;;;;;1.63;1.20;;;;;;;;;;5033577;28;20206;-77
2023/10/28 01:57:35;;;;;;;1.43;1.33;;;;;;;;;;5035860;28;20199;-77
2023/10/28 02:00:07;;;;;;;2.60;1.37;;;;;;;;;;5035026;28;20186;-76
2023/10/28 02:02:35;;;;;;;5.97;1.87;;;;;;;;;;5024324;28;20254;-76
2023/10/28 02:05:02;;;;;;;2.77;1.37;;;;;;;;;;5027926;28;20211;-75
2023/10/28 02:07:30;;;;;;;2.13;1.23;;;;;;;;;;5032056;28;20603;-76
2023/10/28 02:09:57;;;;;;;4.47;1.30;;;;;;;;;;5015936;28;20904;-75
2023/10/28 02:12:24;;;;;;;3.87;1.30;;;;;;;;;;5033268;28;20279;-77
2023/10/28 02:14:52;;;;;;;2.97;1.47;;;;;;;;;;5032814;28;20249;-76
2023/10/28 02:17:19;;;;;;;1.40;1.30;;;;;;;;;;5033025;28;20211;-77
2023/10/28 02:19:47;;;;;;;2.87;1.40;;;;;;;;;;5032949;28;20266;-76
2023/10/28 02:22:15;;;;;;;4.20;1.97;;;;;;;;;;5032012;28;20721;-76
2023/10/28 02:24:42;;;;;;;4.17;1.43;;;;;;;;;;5031338;28;20205;-75
2023/10/28 02:27:11;;;;;;;4.23;1.40;;;;;;;;;;5025814;28;20274;-76
2023/10/28 02:29:38;;;;;;;2.90;1.27;;;;;;;;;;5020608;28;20203;-75
2023/10/28 02:32:06;;;;;;;4.30;1.27;;;;;;;;;;5022049;28;20227;-77
2023/10/28 02:34:33;;;;;;;1.73;1.30;;;;;;;;;;5048010;28;20198;-76
2023/10/28 02:37:01;;;;;;;6.57;1.73;;;;;;;;;;5054381;28;20558;-77
2023/10/28 02:39:28;;;;;;;3.57;1.50;;;;;;;;;;5037659;28;20662;-78
2023/10/28 02:41:55;;;;;;;4.87;1.70;;;;;;;;;;5053413;28;20693;-77
2023/10/28 02:44:22;;;;;;;3.30;1.20;;;;;;;;;;5041417;28;20206;-76
2023/10/28 02:46:50;;;;;;;4.73;1.60;;;;;;;;;;5032316;28;20611;-77
2023/10/28 02:49:17;;;;;;;2.67;1.60;;;;;;;;;;5032504;28;20229;-76
2023/10/28 02:51:44;;;;;;;6.47;1.40;;;;;;;;;;5032383;28;20225;-77
2023/10/28 02:54:13;;;;;;;4.50;1.43;;;;;;;;;;5032567;28;20701;-77
2023/10/28 02:56:40;;;;;;;4.47;1.70;;;;;;;;;;5032193;28;20243;-77
2023/10/28 02:59:08;;;;;;;3.47;1.97;;;;;;;;;;5014064;28;20292;-76
2023/10/28 03:01:38;;;;;;;4.43;1.77;;;;;;;;;;5016006;28;20314;-78
2023/10/28 03:04:08;;;;;;;2.90;2.03;;;;;;;;;;5035129;28;20245;-77
2023/10/28 03:06:36;;;;;;;3.90;1.40;;;;;;;;;;5035339;28;20854;-77
2023/10/28 03:09:04;;;;;;;5.50;1.87;;;;;;;;;;5034790;28;20280;-76
2023/10/28 03:11:31;;;;;;;6.83;1.90;;;;;;;;;;5017726;28;20222;-74
2023/10/28 03:13:59;;;;;;;4.43;1.60;;;;;;;;;;5034531;28;20198;-75
2023/10/28 03:16:26;;;;;;;5.40;1.90;;;;;;;;;;5034108;28;20199;-76
2023/10/28 03:18:54;;;;;;;2.63;1.60;;;;;;;;;;5016952;28;20207;-77
2023/10/28 03:21:21;;;;;;;5.50;1.63;;;;;;;;;;5034078;28;20227;-75
2023/10/28 03:23:48;;;;;;;4.60;1.80;;;;;;;;;;5035286;28;20264;-74
2023/10/28 03:26:16;;;;;;;9.83;1.60;;;;;;;;;;5037650;28;20546;-77
2023/10/28 03:28:43;;;;;;;5.83;1.63;;;;;;;;;;5021252;28;20226;-77
2023/10/28 03:31:11;;;;;;;3.93;1.50;;;;;;;;;;5038078;28;20768;-77
2023/10/28 03:33:39;;;;;;;4.87;1.47;;;;;;;;;;5036284;28;20198;-77
2023/10/28 03:36:09;;;;;;;7.03;1.70;;;;;;;;;;5027769;28;20290;-76
2023/10/28 03:38:36;;;;;;;5.10;2.17;;;;;;;;;;5030073;28;20329;-75
2023/10/28 03:41:07;;;;;;;3.93;1.70;;;;;;;;;;5027639;28;20223;-77
2023/10/28 03:43:34;;;;;;;5.10;1.97;;;;;;;;;;5014546;28;20199;-74
2023/10/28 03:46:03;;;;;;;4.43;1.67;;;;;;;;;;5030125;28;20663;-77
2023/10/28 03:48:31;;;;;;;3.97;1.43;;;;;;;;;;5031158;28;20222;-77
2023/10/28 03:51:00;;;;;;;5.33;1.73;;;;;;;;;;5028788;28;20230;-75
2023/10/28 03:53:27;;;;;;;4.77;1.50;;;;;;;;;;5027423;28;20207;-75
2023/10/28 03:55:55;;;;;;;4.07;1.80;;;;;;;;;;5031939;28;20624;-76
2023/10/28 03:58:23;;;;;;;4.47;1.40;;;;;;;;;;5028586;28;20661;-77
2023/10/28 04:00:54;;;;;;;3.57;1.87;;;;;;;;;;5012880;28;20230;-77
2023/10/28 04:03:22;;;;;;;5.37;2.30;;;;;;;;;;5024627;28;20234;-75
2023/10/28 04:05:50;;;;;;;12.53;5.40;;;;;;;;;;5030734;28;20215;-77
2023/10/28 04:08:17;;;;;;;4.70;2.20;;;;;;;;;;5029463;28;20775;-77
2023/10/28 04:10:46;;;;;;;3.23;2.87;;;;;;;;;;5027064;28;20257;-76
2023/10/28 04:13:14;;;;;;;10.03;6.33;;;;;;;;;;5028584;28;20203;-75
2023/10/28 04:15:42;;;;;;;4.23;3.23;;;;;;;;;;5013644;28;20699;-78
2023/10/28 04:18:09;;;;;;;4.40;2.33;;;;;;;;;;5026028;28;20479;-78
2023/10/28 04:20:37;;;;;;;4.63;2.07;;;;;;;;;;5028027;28;20226;-75
2023/10/28 04:23:06;;;;;;;4.50;3.67;;;;;;;;;;5025686;28;20203;-75
2023/10/28 04:25:34;;;;;;;4.40;2.40;;;;;;;;;;5034829;28;20202;-74
2023/10/28 04:28:01;;;;;;;8.53;4.70;;;;;;;;;;5026797;28;20227;-75
2023/10/28 04:30:30;;;;;;;6.93;3.33;;;;;;;;;;5035051;28;20292;-75
2023/10/28 04:32:57;;;;;;;4.97;2.03;;;;;;;;;;5017559;28;20203;-77
2023/10/28 04:35:25;;;;;;;2.40;1.33;;;;;;;;;;5035747;28;20199;-73
2023/10/28 04:37:55;;;;;;;4.43;1.37;;;;;;;;;;5039572;28;20214;-74
2023/10/28 04:40:24;;;;;;;3.37;2.40;;;;;;;;;;5013821;28;20222;-76
2023/10/28 04:42:52;;;;;;;5.60;1.63;;;;;;;;;;5035225;28;20309;-74
2023/10/28 04:45:21;;;;;;;7.47;2.17;;;;;;;;;;5022703;28;20541;-74
2023/10/28 04:47:50;;;;;;;4.70;2.10;;;;;;;;;;5022771;28;21030;-75
2023/10/28 04:50:18;;;;;;;3.07;2.30;;;;;;;;;;5027507;28;20223;-75
2023/10/28 04:52:45;;;;;;;3.17;1.50;;;;;;;;;;5024127;28;20229;-76
2023/10/28 04:55:13;;;;;;;2.90;1.50;;;;;;;;;;5021294;28;20231;-75
2023/10/28 04:57:41;;;;;;;3.70;1.60;;;;;;;;;;5011168;28;20239;-75
2023/10/28 05:00:09;;;;;;;5.03;1.57;;;;;;;;;;5022984;28;20215;-75
2023/10/28 05:02:36;;;;;;;2.20;1.40;;;;;;;;;;5029595;28;20413;-76
2023/10/28 05:05:03;;;;;;;5.20;1.93;;;;;;;;;;5021473;28;20237;-76
2023/10/28 05:07:31;;;;;;;3.17;1.87;;;;;;;;;;5024881;28;20878;-75
2023/10/28 05:09:58;;;;;;;3.23;1.53;;;;;;;;;;5007238;28;20525;-76
2023/10/28 05:12:26;;;;;;;2.23;1.60;;;;;;;;;;5016054;28;20194;-75
2023/10/28 05:14:53;;;;;;;4.30;1.50;;;;;;;;;;5012751;28;20203;-75
2023/10/28 05:17:21;;;;;;;3.17;1.40;;;;;;;;;;5015362;28;20662;-75
2023/10/28 05:19:48;;;;;;;5.80;3.30;;;;;;;;;;5018551;28;20917;-75
2023/10/28 05:22:18;;;;;;;3.37;1.57;;;;;;;;;;5023275;28;20233;-76
2023/10/28 05:24:45;;;;;;;4.53;1.73;;;;;;;;;;5027959;28;20828;-75
2023/10/28 05:27:13;;;;;;;4.03;1.70;;;;;;;;;;5021485;28;20207;-77
2023/10/28 05:29:40;;;;;;;5.40;2.10;;;;;;;;;;5022202;28;20226;-74
2023/10/28 05:32:08;;;;;;;5.40;2.40;;;;;;;;;;5032427;28;20470;-73
2023/10/28 05:34:36;;;;;;;4.00;1.70;;;;;;;;;;5024772;28;20664;-73
2023/10/28 05:37:05;;;;;;;6.03;1.60;;;;;;;;;;5025664;28;20674;-74
2023/10/28 05:39:32;;;;;;;2.53;1.40;;;;;;;;;;5026102;28;20210;-75
2023/10/28 05:42:00;;;;;;;2.80;1.40;;;;;;;;;;5014838;28;20227;-75
2023/10/28 05:44:27;;;;;;;4.07;1.60;;;;;;;;;;5018616;28;20286;-75
2023/10/28 05:46:59;;;;;;;5.63;1.97;;;;;;;;;;5021664;28;20215;-75
2023/10/28 05:49:26;;;;;;;3.77;1.63;;;;;;;;;;5026418;28;20230;-74
2023/10/28 05:51:54;;;;;;;4.87;1.97;;;;;;;;;;5021353;28;20218;-74
2023/10/28 05:54:21;;;;;;;4.67;1.40;;;;;;;;;;5025124;28;20203;-74
2023/10/28 05:56:48;;;;;;;3.70;1.50;;;;;;;;;;5026730;28;20262;-75
2023/10/28 05:59:16;;;;;;;4.00;1.53;;;;;;;;;;4997387;28;20677;-74
2023/10/28 06:01:43;;;;;;;2.37;1.53;;;;;;;;;;5016683;28;20298;-74
2023/10/28 06:04:10;;;;;;;3.17;1.53;;;;;;;;;;5022792;28;20261;-76
2023/10/28 06:06:38;;;;;;;2.73;1.73;;;;;;;;;;5008639;28;20211;-75
2023/10/28 06:09:05;;;;;;;3.93;1.70;;;;;;;;;;5005729;28;20223;-74
2023/10/28 06:11:32;;;;;;;3.17;1.47;;;;;;;;;;5021568;28;20230;-76
2023/10/28 06:14:01;;;;;;;4.00;1.60;;;;;;;;;;5017053;28;20207;-77
2023/10/28 06:16:28;;;;;;;4.20;2.10;;;;;;;;;;5014441;28;20636;-76
2023/10/28 06:18:56;;;;;;;3.87;2.00;;;;;;;;;;5020290;28;20290;-77
2023/10/28 06:21:23;;;;;;;1.87;1.77;;;;;;;;;;5022688;28;20239;-74
2023/10/28 06:23:52;;;;;;;3.03;1.70;;;;;;;;;;5030305;28;20264;-78
2023/10/28 06:26:19;;;;;;;5.40;1.80;;;;;;;;;;5025702;28;20636;-77
2023/10/28 06:28:47;;;;;;;4.03;2.27;;;;;;;;;;5006655;28;20231;-76
2023/10/28 06:31:15;;;;;;;4.03;1.90;;;;;;;;;;5029926;28;20226;-77
2023/10/28 06:33:42;;;;;;;1.63;1.40;;;;;;;;;;5031809;28;20210;-77
2023/10/28 06:36:10;;;;;;;4.40;1.67;;;;;;;;;;5024019;28;20712;-75
2023/10/28 06:38:37;;;;;;;3.87;2.00;;;;;;;;;;5034168;28;20203;-76
2023/10/28 06:41:04;;;;;;;2.00;1.60;;;;;;;;;;5032052;28;20504;-79
2023/10/28 06:43:33;;;;;;;4.17;2.03;;;;;;;;;;5036170;28;20239;-76
2023/10/28 06:46:00;;;;;;;3.73;1.77;;;;;;;;;;5037558;28;20349;-75
2023/10/28 06:48:28;;;;;;;3.40;1.73;;;;;;;;;;5031700;28;20220;-74
2023/10/28 06:50:55;;;;;;;3.90;1.87;;;;;;;;;;5028954;28;20236;-76
2023/10/28 06:53:23;;;;;;;2.07;1.83;;;;;;;;;;5019256;28;20226;-77
2023/10/28 06:55:50;;;;;;;2.00;1.57;;;;;;;;;;5006885;28;20199;-77
2023/10/28 06:58:18;;;;;;;3.07;1.63;;;;;;;;;;5020132;28;20217;-76
2023/10/28 07:00:45;;;;;;;4.80;1.80;;;;;;;;;;5028508;28;20288;-78
2023/10/28 07:03:14;;;;;;;2.93;1.70;;;;;;;;;;5022154;28;20587;-76
2023/10/28 07:05:41;;;;;;;2.40;1.60;;;;;;;;;;5014286;28;20206;-76
2023/10/28 07:08:09;;;;;;;6.27;2.10;;;;;;;;;;5007297;28;20231;-79
2023/10/28 07:10:37;;;;;;;3.17;2.00;;;;;;;;;;5013891;28;20320;-77
2023/10/28 07:13:04;;;;;;;3.43;1.90;;;;;;;;;;5020607;28;20214;-75
2023/10/28 07:15:31;;;;;;;2.63;1.87;;;;;;;;;;5012993;28;20211;-75
2023/10/28 07:17:59;;;;;;;2.07;1.87;;;;;;;;;;5002091;28;20253;-75
2023/10/28 07:20:28;;;;;;;3.23;1.90;;;;;;;;;;5022781;28;20253;-74
2023/10/28 07:22:55;;;;;;;2.03;1.80;;;;;;;;;;5024724;28;20218;-75
2023/10/28 07:25:23;;;;;;;3.50;1.97;;;;;;;;;;5021934;28;20203;-73
2023/10/28 07:27:50;;;;;;;2.80;2.13;;;;;;;;;;5023759;28;20207;-73
2023/10/28 07:30:17;;;;;;;3.03;1.83;;;;;;;;;;5032229;28;20745;-77
2023/10/28 07:32:45;;;;;;;3.27;2.17;;;;;;;;;;5037508;28;20211;-75
2023/10/28 07:35:12;;;;;;;4.17;2.10;;;;;;;;;;5006991;28;20206;-74
2023/10/28 07:37:39;;;;;;;3.67;2.47;;;;;;;;;;5028412;28;20675;-76
2023/10/28 07:40:07;;;;;;;2.90;1.80;;;;;;;;;;5021690;28;20311;-76
2023/10/28 07:42:34;;;;;;;3.50;2.07;;;;;;;;;;5037571;28;20210;-74
2023/10/28 07:45:02;;;;;;;5.40;2.33;;;;;;;;;;5018804;28;20199;-73
2023/10/28 07:47:31;;;;;;;2.90;1.80;;;;;;;;;;5036715;28;20816;-73
2023/10/28 07:49:58;;;;;;;2.60;2.17;;;;;;;;;;5031409;28;20687;-75
2023/10/28 07:52:26;;;;;;;4.80;2.10;;;;;;;;;;5011822;28;20200;-74
2023/10/28 07:54:53;;;;;;;2.80;2.50;;;;;;;;;;5027818;28;20196;-75
2023/10/28 07:57:22;;;;;;;3.23;1.67;;;;;;;;;;5025269;28;20215;-74
2023/10/28 07:59:50;;;;;;;2.50;1.57;;;;;;;;;;5032869;28;20210;-75
2023/10/28 08:02:17;;;;;;;6.27;1.83;;;;;;;;;;5027821;28;20229;-74
2023/10/28 08:04:44;;;;;;;5.03;1.80;;;;;;;;;;5034223;28;20206;-73
2023/10/28 08:07:14;;;;;;;4.50;1.67;;;;;;;;;;5028877;28;20210;-74
2023/10/28 08:09:41;;;;;;;2.30;1.43;;;;;;;;;;5026038;28;20218;-74
2023/10/28 08:12:08;;;;;;;3.33;1.23;;;;;;;;;;5023549;28;20227;-74
2023/10/28 08:14:36;;;;;;;2.97;1.23;;;;;;;;;;5021774;28;20199;-74
2023/10/28 08:17:05;;;;;;;2.83;1.13;;;;;;;;;;5016413;28;20203;-73
2023/10/28 08:19:32;;;;;;;4.20;1.40;;;;;;;;;;5008008;28;20237;-75
2023/10/28 08:21:59;;;;;;;4.27;1.27;;;;;;;;;;5013115;28;20417;-74
2023/10/28 08:24:27;;;;;;;2.17;1.10;;;;;;;;;;5028486;28;20721;-73
2023/10/28 08:26:56;;;;;;;1.57;1.33;;;;;;;;;;5015676;28;20290;-74
2023/10/28 08:29:25;;;;;;;1.90;1.33;;;;;;;;;;5024135;28;20262;-74
2023/10/28 08:31:54;;;;;;;2.87;1.40;;;;;;;;;;5014729;28;20279;-74
2023/10/28 08:34:24;;;;;;;2.73;1.40;;;;;;;;;;5033192;28;20260;-74
2023/10/28 08:36:53;;;;;;;4.77;1.40;;;;;;;;;;5025675;28;20203;-74
2023/10/28 08:39:21;;;;;;;3.63;1.43;;;;;;;;;;5015150;28;20230;-74
2023/10/28 08:41:50;;;;;;;3.37;1.27;;;;;;;;;;5020253;28;20651;-74
2023/10/28 08:44:20;;;;;;;3.03;1.30;;;;;;;;;;5024965;28;20294;-74
2023/10/28 08:46:49;;;;;;;1.67;1.40;;;;;;;;;;5013088;28;20217;-74
2023/10/28 08:49:22;;;;;;;2.30;1.33;;;;;;;;;;5023886;28;20222;-74
2023/10/28 08:51:57;;;;;;;6.07;1.90;;;;;;;;;;5018165;28;20613;-76
2023/10/28 08:54:28;;;;;;;2.17;1.60;;;;;;;;;;5021812;28;20195;-75
2023/10/28 08:56:57;;;;;;;3.17;1.10;;;;;;;;;;5027284;28;20803;-74
2023/10/28 08:59:27;;;;;;;3.20;1.20;;;;;;;;;;5023513;28;20210;-74
2023/10/28 09:01:57;;;;;;;3.73;1.27;;;;;;;;;;5027589;28;20230;-74
2023/10/28 09:04:24;;;;;;;2.03;1.30;;;;;;;;;;5026902;28;20604;-73
2023/10/28 09:06:52;;;;;;;1.47;1.20;;;;;;;;;;5038673;28;20267;-75
2023/10/28 09:09:22;;;;;;;1.33;1.23;;;;;;;;;;5021078;28;20262;-76
2023/10/28 09:11:51;;;;;;;2.87;1.40;;;;;;;;;;5025982;28;20235;-76
2023/10/28 09:14:18;;;;;;;2.37;1.77;;;;;;;;;;5030270;28;20297;-74
2023/10/28 09:16:46;;;;;;;3.27;1.30;;;;;;;;;;5027029;28;20285;-75
2023/10/28 09:19:20;;;;;;;2.00;1.53;;;;;;;;;;5030718;28;20214;-76
2023/10/28 09:21:52;;;;;;;3.53;1.40;;;;;;;;;;5026997;28;20592;-76
2023/10/28 09:24:21;;;;;;;1.80;1.13;;;;;;;;;;5032095;28;20211;-76
2023/10/28 09:26:52;;;;;;;2.43;1.30;;;;;;;;;;5017782;28;20210;-74
2023/10/28 09:29:23;;;;;;;2.13;1.40;;;;;;;;;;5020876;28;20773;-76
2023/10/28 09:31:50;;;;;;;4.67;1.83;;;;;;;;;;5017423;28;20686;-75
2023/10/28 09:34:18;;;;;;;3.53;1.60;;;;;;;;;;5018573;28;20256;-77
2023/10/28 09:36:45;;;;;;;1.57;1.40;;;;;;;;;;5009398;28;20206;-75
2023/10/28 09:39:13;;;;;;;3.37;2.10;;;;;;;;;;5010386;28;20210;-76
2023/10/28 09:41:41;;;;;;;3.47;1.77;;;;;;;;;;5018665;28;20226;-74
2023/10/28 09:44:09;;;;;;;2.07;1.10;;;;;;;;;;5013653;28;20207;-74
2023/10/28 09:46:37;;;;;;;2.43;1.70;;;;;;;;;;5029607;28;20270;-75
2023/10/28 09:49:07;;;;;;;3.33;1.10;;;;;;;;;;5024817;28;20678;-76
2023/10/28 09:51:38;;;;;;;1.67;1.40;;;;;;;;;;5015857;28;20227;-74
2023/10/28 09:54:11;;;;;;;1.83;1.47;;;;;;;;;;5018367;28;20203;-75
2023/10/28 09:56:41;;;;;;;3.13;1.20;;;;;;;;;;5023761;28;20199;-77
2023/10/28 09:59:14;;;;;;;3.50;1.40;;;;;;;;;;5023009;28;20607;-75
2023/10/28 10:01:48;;;;;;;3.93;1.37;;;;;;;;;;5019016;28;20252;-74
2023/10/28 10:04:31;;;;;;;2.57;1.47;;;;;;;;;;5022777;28;20213;-75
2023/10/28 10:06:58;;;;;;;3.57;1.20;;;;;;;;;;5018272;28;20218;-75
2023/10/28 10:09:26;;;;;;;3.87;1.10;;;;;;;;;;5018709;28;22314;-75
2023/10/28 10:11:56;;;;;;;3.70;1.30;;;;;;;;;;5022526;28;20262;-74
2023/10/28 10:14:25;;;;;;;2.27;1.27;;;;;;;;;;5023419;28;20626;-75
2023/10/28 10:16:52;;;;;;;3.13;1.30;;;;;;;;;;5014213;28;20207;-77
2023/10/28 10:19:27;;;;;;;2.90;1.37;;;;;;;;;;5009391;28;20207;-77
2023/10/28 10:21:57;;;;;;;3.53;1.60;;;;;;;;;;5026706;28;20237;-75
2023/10/28 10:24:27;;;;;;;2.07;1.13;;;;;;;;;;5027044;28;20691;-75
2023/10/28 10:26:57;;;;;;;5.23;1.57;;;;;;;;;;5019095;28;20674;-75
2023/10/28 10:29:26;;;;;;;2.37;1.33;;;;;;;;;;5019875;28;20756;-73
2023/10/28 10:31:55;;;;;;;4.30;1.73;;;;;;;;;;5025037;28;20226;-74
2023/10/28 10:34:33;;;;;;;5.53;1.50;;;;;;;;;;5002460;28;20211;-76
2023/10/28 10:37:01;;;;;;;4.03;1.47;;;;;;;;;;5021082;28;20303;-74
2023/10/28 10:39:28;;;;;;;2.47;1.50;;;;;;;;;;5015614;28;20218;-74
2023/10/28 10:41:59;;;;;;;3.20;1.50;;;;;;;;;;5013244;28;20280;-73
2023/10/28 10:44:36;;;;;;;2.40;1.67;;;;;;;;;;5020695;28;20614;-74
2023/10/28 10:47:05;;;;;;;2.83;1.40;;;;;;;;;;5020369;28;20713;-75
2023/10/28 10:49:33;;;;;;;3.63;1.40;;;;;;;;;;5009034;28;20339;-75
2023/10/28 10:52:00;;;;;;;3.70;1.40;;;;;;;;;;5007717;28;20227;-74
2023/10/28 10:54:32;;;;;;;3.55;1.60;;;;;;;;;;5022431;28;20202;-73
2023/10/28 10:56:59;;;;;;;4.60;1.83;;;;;;;;;;5016432;28;20223;-74
2023/10/28 10:59:30;;;;;;;2.30;1.30;;;;;;;;;;5019263;28;20207;-73
2023/10/28 11:01:57;;;;;;;2.90;1.90;;;;;;;;;;5016415;28;20817;-72
2023/10/28 11:04:25;;;;;;;4.68;1.90;;;;;;;;;;5025746;28;20268;-73
2023/10/28 11:06:53;;;;;;;2.83;1.73;;;;;;;;;;5002257;28;20269;-74
2023/10/28 11:09:21;;;;;;;3.53;1.60;;;;;;;;;;5001562;28;22434;-73
2023/10/28 11:11:49;;;;;;;5.55;1.92;;;;;;;;;;5028881;28;20588;-74
2023/10/28 11:14:16;;;;;;;4.07;1.73;;;;;;;;;;5023446;28;20203;-74
2023/10/28 11:16:44;;;;;;;3.95;1.40;;;;;;;;;;5024437;28;20206;-74
2023/10/28 11:19:11;;;;;;;1.50;1.40;;;;;;;;;;4996549;28;20261;-75
2023/10/28 11:21:40;;;;;;;5.43;1.50;;;;;;;;;;5011235;28;20219;-73
2023/10/28 11:24:08;;;;;;;4.40;1.90;;;;;;;;;;5019752;28;20932;-74
2023/10/28 11:26:37;;;;;;;3.25;1.70;;;;;;;;;;5007153;28;20643;-75
2023/10/28 11:29:07;;;;;;;1.65;1.33;;;;;;;;;;5019123;28;20304;-74
2023/10/28 11:31:38;;;;;;;4.75;2.20;;;;;;;;;;5015881;28;20219;-74
2023/10/28 11:34:06;;;;;;;3.80;1.80;;;;;;;;;;5024092;28;20737;-73
2023/10/28 11:36:33;;;;;;;3.50;1.40;;;;;;;;;;5015718;28;20206;-74
2023/10/28 11:39:13;;;;;;;6.65;1.73;;;;;;;;;;5018073;28;20629;-72
2023/10/28 11:41:47;;;;;;;3.45;1.48;;;;;;;;;;5015203;28;20326;-74
2023/10/28 11:44:15;;;;;;;4.80;1.88;;;;;;;;;;5008549;28;20206;-73
2023/10/28 11:46:42;;;;;;;2.50;1.50;;;;;;;;;;5017948;28;20203;-73
2023/10/28 11:49:10;;;;;;;2.80;1.40;;;;;;;;;;5020506;28;20853;-73
2023/10/28 11:51:37;;;;;;;5.43;1.30;;;;;;;;;;5017093;28;20227;-74
2023/10/28 11:54:05;;;;;;;2.83;1.48;;;;;;;;;;5019805;28;20206;-75
2023/10/28 11:56:32;;;;;;;3.63;1.60;;;;;;;;;;5014514;28;20199;-73
2023/10/28 11:59:01;;;;;;;2.33;1.70;;;;;;;;;;5015679;28;20204;-73
2023/10/28 12:01:31;;;;;;;2.17;1.40;;;;;;;;;;5005895;28;20329;-73
2023/10/28 12:04:00;;;;;;;2.47;1.63;;;;;;;;;;5028289;28;20723;-75
2023/10/28 12:06:27;;;;;;;5.70;2.25;;;;;;;;;;5006284;28;20310;-74
2023/10/28 12:09:00;;;;;;;3.72;1.45;;;;;;;;;;5003190;28;20659;-73
2023/10/28 12:11:28;;;;;;;3.67;1.67;;;;;;;;;;5008569;28;20260;-74
2023/10/28 12:13:56;;;;;;;3.15;1.60;;;;;;;;;;5013709;28;20256;-76
2023/10/28 12:16:24;;;;;;;4.45;1.40;;;;;;;;;;5009931;28;20595;-74
2023/10/28 12:18:51;;;;;;;3.38;1.58;;;;;;;;;;5017733;28;20214;-73
2023/10/28 12:21:19;;;;;;;5.13;1.42;;;;;;;;;;5018686;28;20692;-72
2023/10/28 12:23:46;;;;;;;3.53;1.42;;;;;;;;;;5006816;28;20214;-74
2023/10/28 12:26:13;;;;;;;2.72;1.23;;;;;;;;;;5016918;28;20472;-73
2023/10/28 12:28:41;;;;;;;4.53;1.45;;;;;;;;;;5010407;28;20218;-74
2023/10/28 12:31:08;;;;;;;4.82;1.77;;;;;;;;;;5011684;28;20238;-73
2023/10/28 12:33:35;;;;;;;3.47;1.58;;;;;;;;;;5014580;28;20200;-73
2023/10/28 12:36:06;;;;;;;2.70;1.50;;;;;;;;;;5022948;28;20298;-74
2023/10/28 12:38:34;;;;;;;3.58;1.50;;;;;;;;;;5016943;28;20702;-73
2023/10/28 12:41:02;;;;;;;3.50;1.80;;;;;;;;;;5000550;28;20269;-74
2023/10/28 12:43:30;;;;;;;2.75;1.60;;;;;;;;;;5011193;28;24158;-73
2023/10/28 12:45:57;;;;;;;2.83;1.60;;;;;;;;;;5024237;28;20591;-74
2023/10/28 12:48:25;;;;;;;2.45;1.60;;;;;;;;;;5027030;28;20340;-74
2023/10/28 12:50:52;;;;;;;3.13;1.27;;;;;;;;;;5007739;28;20618;-74
2023/10/28 12:53:20;;;;;;;4.28;1.40;;;;;;;;;;5025042;28;20227;-74
2023/10/28 12:55:47;;;;;;;2.92;1.23;;;;;;;;;;5027145;28;20203;-74
2023/10/28 12:58:14;;;;;;;2.60;1.40;;;;;;;;;;5034318;28;20203;-74
2023/10/28 13:00:44;;;;;;;2.55;1.15;;;;;;;;;;5023652;28;20258;-72
2023/10/28 13:03:12;;;;;;;3.83;1.67;;;;;;;;;;5027166;28;20207;-75
2023/10/28 13:05:40;;;;;;;5.68;1.48;;;;;;;;;;5020009;28;20275;-73
2023/10/28 13:08:08;;;;;;;2.60;1.33;;;;;;;;;;5031341;28;20202;-76
2023/10/28 13:10:36;;;;;;;5.80;1.60;;;;;;;;;;5028983;28;20297;-79
2023/10/28 13:13:04;;;;;;;3.13;1.52;;;;;;;;;;5031993;28;20210;-76
2023/10/28 13:15:32;;;;;;;3.00;1.30;;;;;;;;;;5028234;28;20202;-75
2023/10/28 13:18:00;;;;;;;3.33;1.50;;;;;;;;;;5027944;28;20210;-75
2023/10/28 13:20:27;;;;;;;4.97;1.70;;;;;;;;;;5028968;28;20237;-74
2023/10/28 13:22:55;;;;;;;2.60;1.52;;;;;;;;;;5008549;28;20238;-72
2023/10/28 13:25:23;;;;;;;5.10;1.80;;;;;;;;;;5029749;28;20206;-76
2023/10/28 13:27:50;;;;;;;4.00;1.80;;;;;;;;;;5029545;28;20269;-75
2023/10/28 13:30:18;;;;;;;3.75;1.73;;;;;;;;;;5034915;28;21210;-75
2023/10/28 13:32:45;;;;;;;5.95;2.45;;;;;;;;;;5003632;28;20226;-75
2023/10/28 13:35:22;;;;;;;2.85;1.50;;;;;;;;;;5026784;28;20225;-75
2023/10/28 13:37:50;;;;;;;3.10;1.40;;;;;;;;;;5017273;28;20524;-75
2023/10/28 13:40:18;;;;;;;3.60;1.48;;;;;;;;;;5024076;28;20546;-75
2023/10/28 13:42:46;;;;;;;3.00;1.25;;;;;;;;;;5021562;28;20628;-74
2023/10/28 13:45:13;;;;;;;14.57;2.80;;;;;;;;;;5028951;28;20257;-75
2023/10/28 13:47:44;;;;;;;9.55;1.92;;;;;;;;;;5033872;28;20213;-75
2023/10/28 13:50:11;;;;;;;3.90;1.90;;;;;;;;;;5029117;28;20242;-74
2023/10/28 13:52:41;;;;;;;2.92;1.30;;;;;;;;;;5009528;28;20253;-74
2023/10/28 13:55:11;;;;;;;3.72;1.70;;;;;;;;;;5024699;28;20202;-73
2023/10/28 13:57:39;;;;;;;5.72;1.70;;;;;;;;;;5018729;28;20600;-74
2023/10/28 14:00:10;;;;;;;3.22;1.50;;;;;;;;;;5024661;28;20912;-76
2023/10/28 14:02:38;;;;;;;6.20;1.80;;;;;;;;;;5009764;28;20659;-73
2023/10/28 14:05:08;;;;;;;4.47;1.73;;;;;;;;;;5029874;28;20207;-73
2023/10/28 14:07:37;;;;;;;5.03;1.83;;;;;;;;;;5028024;28;20207;-73
2023/10/28 14:10:10;;;;;;;5.30;1.60;;;;;;;;;;5028573;28;20285;-75
2023/10/28 14:12:40;;;;;;;4.75;1.33;;;;;;;;;;5011445;28;20681;-73
2023/10/28 14:15:12;;;;;;;3.80;1.30;;;;;;;;;;5027572;28;20250;-74
2023/10/28 14:17:39;;;;;;;2.45;1.58;;;;;;;;;;5027418;28;20214;-73
2023/10/28 14:20:11;;;;;;;2.70;1.50;;;;;;;;;;5015377;28;20572;-74
2023/10/28 14:22:38;;;;;;;7.18;2.08;;;;;;;;;;5028864;28;20219;-73
2023/10/28 14:25:10;;;;;;;5.43;2.40;;;;;;;;;;5031150;28;20225;-73
2023/10/28 14:27:38;;;;;;;5.38;3.15;;;;;;;;;;5025145;28;20658;-75
2023/10/28 14:30:08;;;;;;;7.00;4.47;;;;;;;;;;5036520;28;20274;-75
2023/10/28 14:32:36;;;;;;;12.23;6.95;;;;;;;;;;5020505;28;20207;-75
2023/10/28 14:35:05;;;;;;;10.95;5.78;;;;;;;;;;5031314;28;20603;-75
2023/10/28 14:37:32;;;;;;;13.48;10.02;;;;;;;;;;5030233;28;20203;-74
2023/10/28 14:40:00;;;;;;;13.90;9.15;;;;;;;;;;5028848;28;20207;-77
2023/10/28 14:42:27;;;;;;;19.52;10.90;;;;;;;;;;5027004;28;20206;-75
2023/10/28 14:44:54;;;;;;;31.40;14.38;;;;;;;;;;5027710;28;20199;-75
2023/10/28 14:47:21;;;;;;;28.67;13.35;;;;;;;;;;5028474;28;20282;-75
2023/10/28 14:49:49;;;;;;;21.48;11.88;;;;;;;;;;5018841;28;20203;-77